Angelina County Airport Lufkin US
ICAO: KLFK
IATA: LFK
Category: Medium
Scheduled Services: No

Elevation: 296 ft
TransAlt. 18000 ft.

Airport Communications:
ASOS:120.625
HOUSTON CNTR:134.8
MONTGOMERY CO RDO:122.2
CTAF/UNICOM:123

KLFK Zoom In..

If you have problems with the map follow the link
https://www.worldairports.se/pages/airport.php?
ICAO=KLFK

Runways:

(A) RW 07 length 5400 ft width 100 ft
ILS 111.30 / hdg 70

(B) RW 15 length 4311 ft width 100 ft
---- / hdg 155

(C) RW 25 length 5400 ft width 100 ft
---- / hdg 250

(D) RW 33 length 4311 ft width 100 ft
---- / hdg 335

Location; KLFK
Day. 14 / Time. 04.40 Zulu
* Altimeter: 29.87
* Temperature: 08° c. 46.4°f.
* Wind from: 310° Speed 03 kn.
Dewpoint: 07° c.
Visibility: 3 Statute Miles.
Clouds: Clear (automated report).
Conditions: Mist.

KLFK 140440Z AUTO 31003KT 3SM BR CLR 08/07 A2987 RMK AO2 T00830067


Wind From 310°
Speed 03 kn.

 
 
jpsmedia worldairports.se 2019   terms of use